createdAt,value
2018-12-20T00:02:10.481Z,11.47
2018-12-20T00:04:39.340Z,9.90
2018-12-20T00:07:07.888Z,10.77
2018-12-20T00:09:36.957Z,7.63
2018-12-20T00:12:05.620Z,7.97
2018-12-20T00:14:34.411Z,9.27
2018-12-20T00:17:08.755Z,12.37
2018-12-20T00:19:37.644Z,9.23
2018-12-20T00:22:07.730Z,10.87
2018-12-20T00:24:36.348Z,10.77
2018-12-20T00:27:05.138Z,9.73
2018-12-20T00:29:33.715Z,12.70
2018-12-20T00:32:02.711Z,14.23
2018-12-20T00:34:31.533Z,10.67
2018-12-20T00:37:00.415Z,10.87
2018-12-20T00:39:29.072Z,7.80
2018-12-20T00:41:57.806Z,9.23
2018-12-20T00:44:26.785Z,7.57
2018-12-20T00:46:55.476Z,10.90
2018-12-20T00:49:24.457Z,7.90
2018-12-20T00:51:53.014Z,9.87
2018-12-20T00:54:21.919Z,11.77
2018-12-20T00:56:50.889Z,9.73
2018-12-20T00:59:19.673Z,11.23
2018-12-20T01:01:48.633Z,11.00
2018-12-20T01:04:17.394Z,7.87
2018-12-20T01:06:46.271Z,11.13
2018-12-20T01:09:15.167Z,9.23
2018-12-20T01:11:43.915Z,7.73
2018-12-20T01:14:12.614Z,8.83
2018-12-20T01:16:41.549Z,8.90
2018-12-20T01:19:14.984Z,9.37
2018-12-20T01:21:48.219Z,10.13
2018-12-20T01:24:22.969Z,12.73
2018-12-20T01:26:51.950Z,9.93
2018-12-20T01:29:20.628Z,10.67
2018-12-20T01:31:49.520Z,10.60
2018-12-20T01:34:18.464Z,11.87
2018-12-20T01:36:47.478Z,9.83
2018-12-20T01:39:16.468Z,8.73
2018-12-20T01:41:45.485Z,12.83
2018-12-20T01:44:14.311Z,9.27
2018-12-20T01:46:42.892Z,11.07
2018-12-20T01:49:11.851Z,10.33
2018-12-20T01:51:40.598Z,8.43
2018-12-20T01:54:09.484Z,9.83
2018-12-20T01:56:38.424Z,7.70
2018-12-20T01:59:07.457Z,10.63
2018-12-20T02:01:36.175Z,8.90
2018-12-20T02:04:05.234Z,9.37
2018-12-20T02:06:33.735Z,8.33
2018-12-20T02:09:03.120Z,10.73
2018-12-20T02:11:31.982Z,9.27
2018-12-20T02:14:00.822Z,8.33
2018-12-20T02:16:29.912Z,9.87
2018-12-20T02:18:58.519Z,7.67
2018-12-20T02:21:27.170Z,10.47
2018-12-20T02:23:55.970Z,8.93
2018-12-20T02:26:24.815Z,8.10
2018-12-20T02:28:53.843Z,8.03
2018-12-20T02:31:22.715Z,8.37
2018-12-20T02:33:51.376Z,10.83
2018-12-20T02:36:20.142Z,9.13
2018-12-20T02:38:48.997Z,11.83
2018-12-20T02:41:17.890Z,10.30
2018-12-20T02:43:46.755Z,11.20
2018-12-20T02:46:15.826Z,11.00
2018-12-20T02:48:44.621Z,12.00
2018-12-20T02:51:13.483Z,11.13
2018-12-20T02:53:42.191Z,9.30
2018-12-20T02:56:10.843Z,10.30
2018-12-20T02:58:39.690Z,14.13
2018-12-20T03:01:08.859Z,12.57
2018-12-20T03:03:37.928Z,11.43
2018-12-20T03:06:06.730Z,10.50
2018-12-20T03:08:35.567Z,11.27
2018-12-20T03:11:04.412Z,9.90
2018-12-20T03:13:33.401Z,11.50
2018-12-20T03:16:02.064Z,14.03
2018-12-20T03:18:30.951Z,9.10
2018-12-20T03:20:59.967Z,11.00
2018-12-20T03:23:28.964Z,12.27
2018-12-20T03:25:57.867Z,10.20
2018-12-20T03:28:26.583Z,11.90
2018-12-20T03:30:55.851Z,12.33
2018-12-20T03:33:24.609Z,12.30
2018-12-20T03:35:53.405Z,13.17
2018-12-20T03:38:22.216Z,11.43
2018-12-20T03:40:51.176Z,12.07
2018-12-20T03:43:20.074Z,11.07
2018-12-20T03:45:48.948Z,13.43
2018-12-20T03:48:17.843Z,15.43
2018-12-20T03:50:46.693Z,11.53
2018-12-20T03:53:15.717Z,13.50
2018-12-20T03:55:44.909Z,14.00
2018-12-20T03:58:13.768Z,13.17
2018-12-20T04:00:42.439Z,12.40
2018-12-20T04:03:11.193Z,15.27
2018-12-20T04:05:39.984Z,11.30
2018-12-20T04:08:08.702Z,12.53
2018-12-20T04:10:37.421Z,14.27
2018-12-20T04:13:06.225Z,9.67
2018-12-20T04:15:37.888Z,11.63
2018-12-20T04:18:05.838Z,11.17
2018-12-20T04:20:34.798Z,10.60
2018-12-20T04:23:03.807Z,11.53
2018-12-20T04:25:32.716Z,16.17
2018-12-20T04:28:01.585Z,13.03
2018-12-20T04:30:30.502Z,17.07
2018-12-20T04:32:59.380Z,15.57
2018-12-20T04:35:28.453Z,11.23
2018-12-20T04:37:57.127Z,14.37
2018-12-20T04:40:26.001Z,14.40
2018-12-20T04:42:54.712Z,14.93
2018-12-20T04:45:23.795Z,12.47
2018-12-20T04:47:52.484Z,11.07
2018-12-20T04:50:21.390Z,11.33
2018-12-20T04:52:50.362Z,13.70
2018-12-20T04:55:19.501Z,13.87
2018-12-20T04:57:48.267Z,16.37
2018-12-20T05:00:17.230Z,11.50
2018-12-20T05:02:46.049Z,12.50
2018-12-20T05:05:15.021Z,11.10
2018-12-20T05:07:43.846Z,9.57
2018-12-20T05:10:12.694Z,9.50
2018-12-20T05:12:41.750Z,13.97
2018-12-20T05:15:10.608Z,10.37
2018-12-20T05:17:39.432Z,9.60
2018-12-20T05:20:08.162Z,9.40
2018-12-20T05:22:36.952Z,10.13
2018-12-20T05:25:05.884Z,19.23
2018-12-20T05:27:34.932Z,12.90
2018-12-20T05:30:03.937Z,17.87
2018-12-20T05:32:32.659Z,22.90
2018-12-20T05:35:01.711Z,22.87
2018-12-20T05:37:31.443Z,28.33
2018-12-20T05:40:00.021Z,22.70
2018-12-20T05:42:28.858Z,22.03
2018-12-20T05:44:57.635Z,21.73
2018-12-20T05:47:26.566Z,17.50
2018-12-20T05:49:55.299Z,19.23
2018-12-20T05:52:24.085Z,16.20
2018-12-20T05:54:52.942Z,18.63
2018-12-20T05:57:21.830Z,14.70
2018-12-20T05:59:50.616Z,16.57
2018-12-20T06:02:19.413Z,11.80
2018-12-20T06:04:48.242Z,15.90
2018-12-20T06:07:17.080Z,18.40
2018-12-20T06:09:46.060Z,20.40
2018-12-20T06:12:15.790Z,18.43
2018-12-20T06:14:44.549Z,35.40
2018-12-20T06:17:13.501Z,35.63
2018-12-20T06:19:42.679Z,42.63
2018-12-20T06:22:11.813Z,34.37
2018-12-20T06:24:40.639Z,29.57
2018-12-20T06:27:09.279Z,30.57
2018-12-20T06:29:37.972Z,35.30
2018-12-20T06:32:06.672Z,35.87
2018-12-20T06:34:35.369Z,26.50
2018-12-20T06:37:04.126Z,19.57
2018-12-20T06:39:32.973Z,22.97
2018-12-20T06:42:01.686Z,16.07
2018-12-20T06:44:30.534Z,13.40
2018-12-20T06:46:59.136Z,16.70
2018-12-20T06:49:28.090Z,16.07
2018-12-20T06:51:56.770Z,16.63
2018-12-20T06:54:25.380Z,20.23
2018-12-20T06:56:54.147Z,18.97
2018-12-20T06:59:22.734Z,24.67
2018-12-20T07:01:51.420Z,22.27
2018-12-20T07:04:20.179Z,23.20
2018-12-20T07:06:48.889Z,21.57
2018-12-20T07:09:17.861Z,24.53
2018-12-20T07:11:46.656Z,21.80
2018-12-20T07:14:15.195Z,19.10
2018-12-20T07:16:43.990Z,24.27
2018-12-20T07:19:12.550Z,28.60
2018-12-20T07:21:41.182Z,35.60
2018-12-20T07:24:09.843Z,33.63
2018-12-20T07:26:38.753Z,24.03
2018-12-20T07:29:07.423Z,19.80
2018-12-20T07:31:36.269Z,29.43
2018-12-20T07:34:04.994Z,27.97
2018-12-20T07:36:33.559Z,21.97
2018-12-20T07:39:03.515Z,22.30
2018-12-20T07:41:32.101Z,20.13
2018-12-20T07:44:00.785Z,18.63
2018-12-20T07:46:37.556Z,18.27
2018-12-20T07:48:59.969Z,15.63
2018-12-20T07:51:28.787Z,15.83
2018-12-20T07:53:57.405Z,14.87
2018-12-20T07:56:26.187Z,16.10
2018-12-20T07:58:54.981Z,14.03
2018-12-20T08:01:23.660Z,16.37
2018-12-20T08:03:52.452Z,14.50
2018-12-20T08:06:21.261Z,14.57
2018-12-20T08:08:50.012Z,10.97
2018-12-20T08:11:18.759Z,12.17
2018-12-20T08:13:47.742Z,13.10
2018-12-20T08:16:16.367Z,11.97
2018-12-20T08:18:45.147Z,12.80
2018-12-20T08:21:13.746Z,8.53
2018-12-20T08:23:42.802Z,9.00
2018-12-20T08:26:11.435Z,12.40
2018-12-20T08:28:40.139Z,19.57
2018-12-20T08:31:08.996Z,13.93
2018-12-20T08:33:37.697Z,16.80
2018-12-20T08:36:06.486Z,12.93
2018-12-20T08:38:35.458Z,14.70
2018-12-20T08:41:04.104Z,18.47
2018-12-20T08:43:32.830Z,16.90
2018-12-20T08:46:01.536Z,13.63
2018-12-20T08:48:30.307Z,18.60
2018-12-20T08:50:59.211Z,17.23
2018-12-20T08:53:27.998Z,18.50
2018-12-20T08:55:57.468Z,15.80
2018-12-20T08:58:26.400Z,13.27
2018-12-20T09:00:55.183Z,19.07
2018-12-20T09:03:24.286Z,15.80
2018-12-20T09:05:53.186Z,15.70
2018-12-20T09:08:22.273Z,14.47
2018-12-20T09:10:51.039Z,17.33
2018-12-20T09:13:21.455Z,13.53
2018-12-20T09:15:50.540Z,13.97
2018-12-20T09:18:19.666Z,18.20
2018-12-20T09:20:48.758Z,14.50
2018-12-20T09:23:17.534Z,12.53
2018-12-20T09:25:46.314Z,9.77
2018-12-20T09:28:15.008Z,10.13
2018-12-20T09:30:44.004Z,11.53
2018-12-20T09:33:13.218Z,16.67
2018-12-20T09:35:41.980Z,10.70
2018-12-20T09:38:10.778Z,8.57
2018-12-20T09:40:39.571Z,6.77
2018-12-20T09:43:08.428Z,8.70
2018-12-20T09:45:37.030Z,8.63
2018-12-20T09:48:06.094Z,10.63
2018-12-20T09:50:35.487Z,7.50
2018-12-20T09:53:03.783Z,6.67
2018-12-20T09:55:32.330Z,8.90
2018-12-20T09:58:00.982Z,11.03
2018-12-20T10:00:29.787Z,8.20
2018-12-20T10:02:58.396Z,8.10
2018-12-20T10:05:27.142Z,7.67
2018-12-20T10:07:55.770Z,7.70
2018-12-20T10:10:24.508Z,6.00
2018-12-20T10:12:53.309Z,5.53
2018-12-20T10:15:21.982Z,6.13
2018-12-20T10:17:50.720Z,9.37
2018-12-20T10:20:19.539Z,7.93
2018-12-20T10:22:48.037Z,6.63
2018-12-20T10:25:16.820Z,7.40
2018-12-20T10:27:45.404Z,10.20
2018-12-20T10:30:13.831Z,8.77
2018-12-20T10:32:42.573Z,2.97
2018-12-20T10:35:11.307Z,5.27
2018-12-20T10:37:40.129Z,5.93
2018-12-20T10:40:08.888Z,6.53
2018-12-20T10:42:37.426Z,3.30
2018-12-20T10:45:07.146Z,4.00
2018-12-20T10:47:36.007Z,4.70
2018-12-20T10:50:05.286Z,3.73
2018-12-20T10:52:34.052Z,4.33
2018-12-20T10:55:02.768Z,4.17
2018-12-20T10:57:31.369Z,4.33
2018-12-20T11:00:00.260Z,4.63
2018-12-20T11:03:32.741Z,5.83
2018-12-20T11:06:05.808Z,4.33
2018-12-20T11:08:36.692Z,5.67
2018-12-20T11:11:06.681Z,8.20
2018-12-20T11:13:35.495Z,6.90
2018-12-20T11:16:04.333Z,7.20
2018-12-20T11:18:33.310Z,4.03
2018-12-20T11:21:02.242Z,4.17
2018-12-20T11:23:31.291Z,5.30
2018-12-20T11:26:00.023Z,4.60
2018-12-20T11:28:28.749Z,5.97
2018-12-20T11:30:57.466Z,3.20
2018-12-20T11:33:26.282Z,6.07
2018-12-20T11:35:54.945Z,3.80
2018-12-20T11:38:23.647Z,4.60
2018-12-20T11:40:54.589Z,4.37
2018-12-20T11:43:23.253Z,3.90
2018-12-20T11:45:52.272Z,4.90
2018-12-20T11:48:21.055Z,6.53
2018-12-20T11:50:49.783Z,6.10
2018-12-20T11:53:18.512Z,3.87
2018-12-20T11:55:47.787Z,5.57
2018-12-20T11:58:16.482Z,3.40
2018-12-20T12:00:45.078Z,3.33
2018-12-20T12:03:13.673Z,4.57
2018-12-20T12:05:42.679Z,2.80
2018-12-20T12:08:11.315Z,3.33
2018-12-20T12:10:39.913Z,4.60
2018-12-20T12:13:08.506Z,3.27
2018-12-20T12:15:37.315Z,5.17
2018-12-20T12:18:06.053Z,5.07
2018-12-20T12:20:34.722Z,5.03
2018-12-20T12:23:03.342Z,4.13
2018-12-20T12:25:32.374Z,3.43
2018-12-20T12:28:01.062Z,3.30
2018-12-20T12:30:29.842Z,4.30
2018-12-20T12:32:58.493Z,2.77
2018-12-20T12:35:27.127Z,4.50
2018-12-20T12:37:55.972Z,5.43
2018-12-20T12:40:24.703Z,4.27
2018-12-20T12:42:53.273Z,3.83
2018-12-20T12:45:21.989Z,2.67
2018-12-20T12:48:03.210Z,3.77
2018-12-20T12:50:26.656Z,4.37
2018-12-20T12:52:55.461Z,5.13
2018-12-20T12:55:24.082Z,3.47
2018-12-20T12:57:52.779Z,5.30
2018-12-20T13:00:22.299Z,3.93
2018-12-20T13:02:50.827Z,4.20
2018-12-20T13:05:19.545Z,6.07
2018-12-20T13:07:48.251Z,3.33
2018-12-20T13:10:16.929Z,5.30
2018-12-20T13:12:45.674Z,5.47
2018-12-20T13:15:14.882Z,7.20
2018-12-20T13:17:43.516Z,4.87
2018-12-20T13:20:12.341Z,11.57
2018-12-20T13:22:41.230Z,5.00
2018-12-20T13:25:09.642Z,5.87
2018-12-20T13:27:38.061Z,5.27
2018-12-20T13:30:09.859Z,4.53
2018-12-20T13:32:38.490Z,8.40
2018-12-20T13:35:07.179Z,7.23
2018-12-20T13:37:36.575Z,3.43
2018-12-20T13:40:05.985Z,2.90
2018-12-20T13:42:34.927Z,2.40
2018-12-20T13:45:03.897Z,23.57
2018-12-20T13:47:33.917Z,5.17
2018-12-20T13:50:03.509Z,6.33
2018-12-20T13:52:33.268Z,5.73
2018-12-20T13:55:01.873Z,7.70
2018-12-20T13:57:30.470Z,9.13
2018-12-20T13:59:59.420Z,5.80
2018-12-20T14:02:28.177Z,5.20
2018-12-20T14:04:56.979Z,5.67
2018-12-20T14:07:25.742Z,7.93
2018-12-20T14:09:54.340Z,7.60
2018-12-20T14:12:23.146Z,6.57
2018-12-20T14:14:52.026Z,5.27
2018-12-20T14:17:20.762Z,7.73
2018-12-20T14:19:49.775Z,16.87
2018-12-20T14:22:18.440Z,6.23
2018-12-20T14:24:47.173Z,6.77
2018-12-20T14:27:15.848Z,6.37
2018-12-20T14:29:44.801Z,7.27
2018-12-20T14:32:13.633Z,10.57
2018-12-20T14:34:42.287Z,9.23
2018-12-20T14:37:11.087Z,10.03
2018-12-20T14:39:39.791Z,11.83
2018-12-20T14:42:09.610Z,9.07
2018-12-20T14:44:38.487Z,12.43
2018-12-20T14:47:07.754Z,10.47
2018-12-20T14:49:37.631Z,12.63
2018-12-20T14:52:08.262Z,13.70
2018-12-20T14:54:36.895Z,10.87
2018-12-20T14:57:05.501Z,8.03
2018-12-20T14:59:34.289Z,11.40
2018-12-20T15:02:03.054Z,13.73
2018-12-20T15:04:31.885Z,13.50
2018-12-20T15:07:00.556Z,16.10
2018-12-20T15:09:29.268Z,17.70
2018-12-20T15:11:58.050Z,10.50
2018-12-20T15:14:27.117Z,13.50
2018-12-20T15:16:56.159Z,13.67
2018-12-20T15:19:25.072Z,20.47
2018-12-20T15:21:53.890Z,16.30
2018-12-20T15:24:22.619Z,22.30
2018-12-20T15:26:51.450Z,14.80
2018-12-20T15:29:20.456Z,14.50
2018-12-20T15:31:53.360Z,12.43
2018-12-20T15:34:20.384Z,13.20
2018-12-20T15:36:49.103Z,12.83
2018-12-20T15:39:17.939Z,13.60
2018-12-20T15:41:46.722Z,12.37
2018-12-20T15:44:15.278Z,15.37
2018-12-20T15:46:44.085Z,16.07
2018-12-20T15:49:13.105Z,13.73
2018-12-20T15:51:41.850Z,13.83
2018-12-20T15:54:10.501Z,17.97
2018-12-20T15:56:39.373Z,14.83
2018-12-20T15:59:08.260Z,26.13
2018-12-20T16:01:37.036Z,61.77
2018-12-20T16:04:05.827Z,58.30
2018-12-20T16:06:34.864Z,56.20
2018-12-20T16:09:04.816Z,35.37
2018-12-20T16:11:33.618Z,46.30
2018-12-20T16:14:08.874Z,29.00
2018-12-20T16:16:38.028Z,29.87
2018-12-20T16:19:06.705Z,22.17
2018-12-20T16:21:35.239Z,22.03
2018-12-20T16:24:04.025Z,28.23
2018-12-20T16:26:32.775Z,22.47
2018-12-20T16:29:01.548Z,18.07
2018-12-20T16:31:30.427Z,21.10
2018-12-20T16:33:59.115Z,27.77
2018-12-20T16:36:28.025Z,21.00
2018-12-20T16:38:56.686Z,18.83
2018-12-20T16:41:25.538Z,20.17
2018-12-20T16:43:54.397Z,16.90
2018-12-20T16:46:23.115Z,16.47
2018-12-20T16:48:53.981Z,16.47
2018-12-20T16:51:23.248Z,16.93
2018-12-20T16:53:52.138Z,16.13
2018-12-20T16:56:20.750Z,13.57
2018-12-20T16:58:49.534Z,17.33
2018-12-20T17:01:18.126Z,16.23
2018-12-20T17:03:46.683Z,15.30
2018-12-20T17:06:15.463Z,13.20
2018-12-20T17:08:48.290Z,15.93
2018-12-20T17:11:15.431Z,18.77
2018-12-20T17:13:44.071Z,17.73
2018-12-20T17:16:12.910Z,19.13
2018-12-20T17:18:41.518Z,19.50
2018-12-20T17:21:10.114Z,22.43
2018-12-20T17:23:38.849Z,21.30
2018-12-20T17:26:07.709Z,22.77
2018-12-20T17:28:36.496Z,21.10
2018-12-20T17:31:05.262Z,17.13
2018-12-20T17:33:34.061Z,18.63
2018-12-20T17:36:02.493Z,16.87
2018-12-20T17:38:31.237Z,15.17
2018-12-20T17:41:00.024Z,14.30
2018-12-20T17:43:28.816Z,10.33
2018-12-20T17:45:57.583Z,11.57
2018-12-20T17:48:29.422Z,16.67
2018-12-20T17:50:57.246Z,13.67
2018-12-20T17:53:26.013Z,13.13
2018-12-20T17:55:54.956Z,13.97
2018-12-20T17:58:23.631Z,12.53
2018-12-20T18:00:52.669Z,10.90
2018-12-20T18:03:21.477Z,12.20
2018-12-20T18:05:50.565Z,13.13
2018-12-20T18:08:19.252Z,14.20
2018-12-20T18:10:48.117Z,11.23
2018-12-20T18:13:16.822Z,14.20
2018-12-20T18:15:45.693Z,11.47
2018-12-20T18:18:14.278Z,15.67
2018-12-20T18:20:43.063Z,17.00
2018-12-20T18:23:11.834Z,13.47
2018-12-20T18:25:40.337Z,15.57
2018-12-20T18:28:09.223Z,14.87
2018-12-20T18:30:37.971Z,15.23
2018-12-20T18:33:06.693Z,17.13
2018-12-20T18:35:35.571Z,17.23
2018-12-20T18:38:04.123Z,15.27
2018-12-20T18:40:32.877Z,13.13
2018-12-20T18:43:01.802Z,15.97
2018-12-20T18:45:30.642Z,18.53
2018-12-20T18:47:59.399Z,18.10
2018-12-20T18:50:28.114Z,15.70
2018-12-20T18:52:56.922Z,20.85
2018-12-20T18:55:25.701Z,17.77
2018-12-20T18:57:54.597Z,17.77
2018-12-20T19:00:23.402Z,15.57
2018-12-20T19:02:52.095Z,15.30
2018-12-20T19:05:20.890Z,14.83
2018-12-20T19:07:49.653Z,16.60
2018-12-20T19:10:20.048Z,22.57
2018-12-20T19:12:48.752Z,20.07
2018-12-20T19:15:17.738Z,17.03
2018-12-20T19:17:46.409Z,16.77
2018-12-20T19:20:16.336Z,14.57
2018-12-20T19:22:45.387Z,20.20
2018-12-20T19:25:13.918Z,13.60
2018-12-20T19:27:42.696Z,16.63
2018-12-20T19:30:11.600Z,14.43
2018-12-20T19:32:40.797Z,13.87
2018-12-20T19:35:09.579Z,13.90
2018-12-20T19:37:38.342Z,13.63
2018-12-20T19:40:08.859Z,15.90
2018-12-20T19:42:37.569Z,11.33
2018-12-20T19:45:06.395Z,13.93
2018-12-20T19:47:35.665Z,17.60
2018-12-20T19:50:05.277Z,11.57
2018-12-20T19:52:34.102Z,11.20
2018-12-20T19:55:02.647Z,11.53
2018-12-20T19:57:31.450Z,16.20
2018-12-20T20:00:00.746Z,15.30
2018-12-20T20:02:29.361Z,15.20
2018-12-20T20:04:58.051Z,16.03
2018-12-20T20:07:26.874Z,14.63
2018-12-20T20:09:55.679Z,15.47
2018-12-20T20:12:24.298Z,11.07
2018-12-20T20:14:53.019Z,12.43
2018-12-20T20:17:21.734Z,13.30
2018-12-20T20:19:50.222Z,11.17
2018-12-20T20:22:18.946Z,10.20
2018-12-20T20:24:47.487Z,10.77
2018-12-20T20:27:16.372Z,8.67
2018-12-20T20:29:45.132Z,10.87
2018-12-20T20:32:13.950Z,11.43
2018-12-20T20:34:42.734Z,11.33
2018-12-20T20:37:11.527Z,11.60
2018-12-20T20:39:40.416Z,14.93
2018-12-20T20:42:09.100Z,9.97
2018-12-20T20:44:37.789Z,12.00
2018-12-20T20:47:06.421Z,10.40
2018-12-20T20:49:35.361Z,9.30
2018-12-20T20:52:04.082Z,12.97
2018-12-20T20:54:32.528Z,13.60
2018-12-20T20:57:01.194Z,16.20
2018-12-20T20:59:29.795Z,17.37
2018-12-20T21:01:59.689Z,12.43
2018-12-20T21:04:28.239Z,12.40
2018-12-20T21:06:56.898Z,15.37
2018-12-20T21:09:26.178Z,16.93
2018-12-20T21:11:54.860Z,18.77
2018-12-20T21:14:23.591Z,11.90
2018-12-20T21:16:52.261Z,15.13
2018-12-20T21:19:20.796Z,12.60
2018-12-20T21:21:49.607Z,12.77
2018-12-20T21:24:18.110Z,9.40
2018-12-20T21:26:46.971Z,11.47
2018-12-20T21:29:15.881Z,13.37
2018-12-20T21:31:44.549Z,12.23
2018-12-20T21:34:13.139Z,22.67
2018-12-20T21:36:42.165Z,23.23
2018-12-20T21:39:11.012Z,18.37
2018-12-20T21:41:39.966Z,15.37
2018-12-20T21:44:08.642Z,17.77
2018-12-20T21:46:37.384Z,19.07
2018-12-20T21:49:06.003Z,20.57
2018-12-20T21:51:34.846Z,23.80
2018-12-20T21:54:03.639Z,20.23
2018-12-20T21:56:32.326Z,17.43
2018-12-20T21:59:01.191Z,15.20
2018-12-20T22:01:29.805Z,15.33
2018-12-20T22:03:58.582Z,23.60
2018-12-20T22:06:27.267Z,15.53
2018-12-20T22:08:55.860Z,15.87
2018-12-20T22:11:24.730Z,11.17
2018-12-20T22:13:53.450Z,14.93
2018-12-20T22:16:22.196Z,14.63
2018-12-20T22:18:50.899Z,16.23
2018-12-20T22:21:19.825Z,21.87
2018-12-20T22:23:48.611Z,23.23
2018-12-20T22:26:17.372Z,16.67
2018-12-20T22:28:45.958Z,15.50
2018-12-20T22:31:14.675Z,12.67
2018-12-20T22:33:43.451Z,12.10
2018-12-20T22:36:12.207Z,11.57
2018-12-20T22:38:41.108Z,10.37
2018-12-20T22:41:09.784Z,7.90
2018-12-20T22:43:38.557Z,10.40
2018-12-20T22:46:07.364Z,9.13
2018-12-20T22:48:36.098Z,7.90
2018-12-20T22:51:04.810Z,9.73
2018-12-20T22:53:33.462Z,18.40
2018-12-20T22:56:02.201Z,18.27
2018-12-20T22:58:31.078Z,18.03
2018-12-20T23:01:00.463Z,18.57
2018-12-20T23:03:29.164Z,14.73
2018-12-20T23:05:57.966Z,11.37
2018-12-20T23:08:26.815Z,10.73
2018-12-20T23:10:55.623Z,10.30
2018-12-20T23:13:24.224Z,8.43
2018-12-20T23:15:53.013Z,9.10
2018-12-20T23:18:21.820Z,9.47
2018-12-20T23:20:50.667Z,8.33
2018-12-20T23:23:19.269Z,7.87
2018-12-20T23:25:48.055Z,8.70
2018-12-20T23:28:16.830Z,10.13
2018-12-20T23:30:45.538Z,7.80
2018-12-20T23:33:14.262Z,5.57
2018-12-20T23:35:43.214Z,7.33
2018-12-20T23:38:12.011Z,6.87
2018-12-20T23:40:40.787Z,6.77
2018-12-20T23:43:09.334Z,6.10
2018-12-20T23:45:38.018Z,7.23
2018-12-20T23:48:06.832Z,7.27
2018-12-20T23:50:35.462Z,9.30
2018-12-20T23:53:04.112Z,6.47
2018-12-20T23:55:32.745Z,6.33
2018-12-20T23:58:01.679Z,6.97
